createdAt,value
2022-10-31T00:00:22.031Z,131.90
2022-10-31T00:01:21.982Z,76.30
2022-10-31T00:02:21.979Z,180.10
2022-10-31T00:03:21.704Z,148.90
2022-10-31T00:04:22.563Z,132.20
2022-10-31T00:05:21.609Z,139.90
2022-10-31T00:06:21.728Z,86.10
2022-10-31T00:07:21.528Z,139.60
2022-10-31T00:08:21.540Z,188.20
2022-10-31T00:09:21.553Z,140.70
2022-10-31T00:10:21.779Z,154.10
2022-10-31T00:11:21.442Z,133.80
2022-10-31T00:12:22.053Z,145.50
2022-10-31T00:14:21.859Z,165.80
2022-10-31T00:15:21.510Z,154.70
2022-10-31T00:16:21.489Z,128.20
2022-10-31T00:17:22.636Z,77.30
2022-10-31T00:18:23.265Z,131.70
2022-10-31T00:19:22.446Z,110.20
2022-10-31T00:20:23.366Z,93.70
2022-10-31T00:21:21.523Z,78.70
2022-10-31T00:22:21.623Z,75.40
2022-10-31T00:23:21.647Z,79.20
2022-10-31T00:24:21.541Z,118.30
2022-10-31T00:25:21.359Z,119.50
2022-10-31T00:26:21.537Z,82.50
2022-10-31T00:27:21.742Z,101.60
2022-10-31T00:28:21.511Z,70.90
2022-10-31T00:29:21.977Z,69.60
2022-10-31T00:30:21.685Z,90.20
2022-10-31T00:31:22.152Z,66.10
2022-10-31T00:32:21.683Z,46.60
2022-10-31T00:33:22.121Z,144.10
2022-10-31T00:34:21.330Z,77.90
2022-10-31T00:35:21.955Z,49.10
2022-10-31T00:36:23.262Z,102.10
2022-10-31T00:37:21.120Z,138.80
2022-10-31T00:38:22.170Z,78.60
2022-10-31T00:39:21.043Z,141.80
2022-10-31T00:40:21.170Z,131.90
2022-10-31T00:41:21.181Z,87.80
2022-10-31T00:42:21.663Z,101.10
2022-10-31T00:43:21.497Z,75.50
2022-10-31T00:44:21.322Z,76.20
2022-10-31T00:45:21.183Z,100.40
2022-10-31T00:46:21.606Z,83.80
2022-10-31T00:47:21.396Z,58.20
2022-10-31T00:48:21.226Z,81.60
2022-10-31T00:49:21.093Z,70.30
2022-10-31T00:50:21.239Z,73.40
2022-10-31T00:51:21.364Z,62.60
2022-10-31T00:52:21.118Z,105.40
2022-10-31T00:53:21.062Z,73.80
2022-10-31T00:54:20.959Z,91.70
2022-10-31T00:55:22.147Z,99.90
2022-10-31T00:56:21.385Z,89.40
2022-10-31T00:57:21.881Z,61.50
2022-10-31T00:58:21.086Z,62.40
2022-10-31T00:59:20.966Z,81.90
2022-10-31T01:00:22.014Z,40.50
2022-10-31T01:01:21.234Z,48.40
2022-10-31T01:02:21.056Z,36.20
2022-10-31T01:03:21.859Z,42.50
2022-10-31T01:04:21.521Z,51.70
2022-10-31T01:05:20.910Z,37.80
2022-10-31T01:06:20.823Z,23.50
2022-10-31T01:07:21.151Z,40.30
2022-10-31T01:08:20.835Z,46.00
2022-10-31T01:09:20.946Z,38.30
2022-10-31T01:10:20.976Z,88.80
2022-10-31T01:11:20.862Z,52.40
2022-10-31T01:15:42.819Z,89.50
2022-10-31T01:16:42.605Z,94.80
2022-10-31T01:17:21.426Z,51.30
2022-10-31T01:18:21.615Z,76.70
2022-10-31T01:19:21.638Z,57.90
2022-10-31T01:20:22.037Z,114.50
2022-10-31T01:21:21.445Z,111.00
2022-10-31T01:22:21.533Z,64.10
2022-10-31T01:23:21.562Z,57.90
2022-10-31T01:24:21.575Z,81.90
2022-10-31T01:25:21.691Z,95.60
2022-10-31T01:26:22.419Z,64.00
2022-10-31T01:27:21.591Z,52.10
2022-10-31T01:28:21.542Z,35.50
2022-10-31T01:29:21.603Z,66.50
2022-10-31T01:30:21.925Z,69.80
2022-10-31T01:31:21.736Z,31.20
2022-10-31T01:32:21.439Z,55.30
2022-10-31T01:33:21.329Z,35.80
2022-10-31T01:34:21.405Z,78.30
2022-10-31T01:35:21.527Z,76.60
2022-10-31T01:36:21.638Z,54.00
2022-10-31T01:37:21.370Z,87.40
2022-10-31T01:38:21.556Z,64.60
2022-10-31T01:39:21.350Z,79.70
2022-10-31T01:40:21.367Z,67.00
2022-10-31T01:41:25.553Z,54.50
2022-10-31T01:42:21.386Z,45.00
2022-10-31T01:44:21.476Z,62.80
2022-10-31T01:45:21.409Z,67.20
2022-10-31T01:46:22.404Z,71.60
2022-10-31T01:47:21.404Z,41.90
2022-10-31T01:48:21.114Z,47.40
2022-10-31T01:49:21.220Z,50.60
2022-10-31T01:50:21.137Z,40.40
2022-10-31T01:51:21.130Z,37.70
2022-10-31T01:52:21.254Z,34.40
2022-10-31T01:53:25.871Z,65.70
2022-10-31T01:54:22.161Z,66.70
2022-10-31T01:55:21.170Z,52.20
2022-10-31T01:56:21.507Z,44.10
2022-10-31T01:57:21.308Z,56.30
2022-10-31T01:58:21.087Z,49.60
2022-10-31T01:59:21.184Z,60.00
2022-10-31T02:00:21.025Z,38.30
2022-10-31T02:01:21.100Z,45.70
2022-10-31T02:02:21.596Z,47.90
2022-10-31T02:03:21.033Z,68.80
2022-10-31T02:04:20.978Z,56.50
2022-10-31T02:05:20.952Z,53.20
2022-10-31T02:06:21.462Z,67.30
2022-10-31T02:07:21.053Z,51.80
2022-10-31T02:08:22.902Z,58.60
2022-10-31T02:09:20.980Z,64.90
2022-10-31T02:10:21.692Z,55.90
2022-10-31T02:11:21.090Z,53.30
2022-10-31T02:12:20.991Z,36.80
2022-10-31T02:13:21.021Z,40.20
2022-10-31T02:14:21.829Z,46.20
2022-10-31T02:15:20.892Z,29.10
2022-10-31T02:16:21.019Z,48.70
2022-10-31T02:17:20.897Z,38.80
2022-10-31T02:18:20.730Z,51.30
2022-10-31T02:19:21.726Z,51.40
2022-10-31T02:20:20.810Z,38.00
2022-10-31T02:21:20.978Z,50.10
2022-10-31T02:22:20.659Z,32.20
2022-10-31T02:23:20.767Z,40.70
2022-10-31T02:24:20.775Z,42.20
2022-10-31T02:25:20.889Z,28.10
2022-10-31T02:26:20.575Z,50.60
2022-10-31T02:27:20.898Z,45.20
2022-10-31T02:28:20.814Z,49.60
2022-10-31T02:29:21.111Z,43.40
2022-10-31T02:30:20.718Z,40.80
2022-10-31T02:31:20.609Z,43.10
2022-10-31T02:32:20.627Z,50.90
2022-10-31T02:33:20.635Z,44.40
2022-10-31T02:34:20.525Z,47.60
2022-10-31T02:35:20.627Z,50.20
2022-10-31T02:36:21.073Z,56.10
2022-10-31T02:37:20.537Z,35.10
2022-10-31T02:38:20.560Z,36.40
2022-10-31T02:39:20.556Z,38.80
2022-10-31T02:40:20.475Z,53.40
2022-10-31T02:41:20.578Z,56.50
2022-10-31T02:42:20.378Z,71.20
2022-10-31T02:43:20.566Z,46.10
2022-10-31T02:44:20.403Z,62.10
2022-10-31T02:45:20.405Z,65.20
2022-10-31T02:46:20.687Z,63.80
2022-10-31T02:47:20.618Z,61.70
2022-10-31T02:48:20.414Z,65.90
2022-10-31T02:49:20.419Z,65.30
2022-10-31T02:50:20.325Z,70.90
2022-10-31T02:51:20.621Z,57.80
2022-10-31T02:52:20.343Z,62.40
2022-10-31T02:53:20.349Z,48.30
2022-10-31T02:54:20.162Z,57.10
2022-10-31T02:55:20.278Z,46.70
2022-10-31T02:56:20.359Z,52.90
2022-10-31T02:57:20.373Z,54.10
2022-10-31T02:59:21.212Z,28.60
2022-10-31T03:00:20.207Z,48.70
2022-10-31T03:01:20.148Z,45.20
2022-10-31T03:02:20.239Z,41.90
2022-10-31T03:03:20.231Z,47.80
2022-10-31T03:04:20.514Z,33.30
2022-10-31T03:05:20.253Z,41.50
2022-10-31T03:06:20.042Z,45.50
2022-10-31T03:07:20.339Z,52.20
2022-10-31T03:08:20.273Z,47.70
2022-10-31T03:09:20.071Z,63.10
2022-10-31T03:10:20.161Z,61.10
2022-10-31T03:11:20.042Z,56.90
2022-10-31T03:12:20.677Z,52.20
2022-10-31T03:13:20.851Z,67.60
2022-10-31T03:14:20.008Z,47.60
2022-10-31T03:15:20.007Z,75.40
2022-10-31T03:16:20.023Z,63.20
2022-10-31T03:17:20.061Z,77.60
2022-10-31T03:18:20.131Z,76.50
2022-10-31T03:19:20.014Z,77.90
2022-10-31T03:20:19.943Z,66.70
2022-10-31T03:21:20.050Z,46.70
2022-10-31T03:22:20.042Z,66.30
2022-10-31T03:23:20.068Z,67.00
2022-10-31T03:24:19.954Z,67.70
2022-10-31T03:25:19.967Z,65.50
2022-10-31T03:26:19.777Z,72.00
2022-10-31T03:27:20.067Z,76.40
2022-10-31T03:29:19.794Z,53.10
2022-10-31T03:30:19.979Z,58.60
2022-10-31T03:31:19.706Z,56.80
2022-10-31T03:32:21.657Z,64.40
2022-10-31T03:33:22.740Z,76.50
2022-10-31T03:34:19.918Z,64.50
2022-10-31T03:35:19.725Z,63.90
2022-10-31T03:36:19.630Z,67.60
2022-10-31T03:37:19.720Z,55.70
2022-10-31T03:38:19.693Z,74.60
2022-10-31T03:39:19.777Z,48.00
2022-10-31T03:40:19.755Z,69.70
2022-10-31T03:41:19.864Z,66.20
2022-10-31T03:42:19.874Z,69.10
2022-10-31T03:43:20.020Z,66.00
2022-10-31T03:44:19.678Z,63.70
2022-10-31T03:45:19.494Z,69.60
2022-10-31T03:46:19.636Z,74.40
2022-10-31T03:47:19.610Z,53.70
2022-10-31T03:48:19.708Z,70.90
2022-10-31T03:49:19.430Z,90.30
2022-10-31T03:50:19.512Z,64.40
2022-10-31T03:51:19.619Z,55.90
2022-10-31T03:52:19.440Z,94.90
2022-10-31T03:53:20.594Z,59.30
2022-10-31T03:54:19.535Z,57.30
2022-10-31T03:55:19.358Z,80.90
2022-10-31T03:56:19.592Z,84.70
2022-10-31T03:57:19.381Z,60.90
2022-10-31T03:59:19.475Z,100.00
2022-10-31T04:00:19.486Z,102.40
2022-10-31T04:01:19.419Z,124.70
2022-10-31T04:02:19.618Z,145.00
2022-10-31T04:03:19.641Z,209.20
2022-10-31T04:04:19.501Z,202.80
2022-10-31T04:05:19.242Z,131.20
2022-10-31T04:06:21.013Z,155.20
2022-10-31T04:07:19.234Z,110.10
2022-10-31T04:08:19.337Z,156.40
2022-10-31T04:09:19.348Z,141.10
2022-10-31T04:10:19.246Z,301.60
2022-10-31T04:11:19.357Z,153.50
2022-10-31T04:12:19.273Z,152.30
2022-10-31T04:14:19.311Z,169.30
2022-10-31T04:15:19.170Z,218.30
2022-10-31T04:16:19.120Z,261.30
2022-10-31T04:17:19.188Z,205.50
2022-10-31T04:18:19.192Z,280.80
2022-10-31T04:19:19.312Z,97.80
2022-10-31T04:20:19.150Z,226.50
2022-10-31T04:21:19.255Z,265.90
2022-10-31T04:22:19.167Z,322.00
2022-10-31T04:23:19.255Z,269.50
2022-10-31T04:24:19.070Z,160.90
2022-10-31T04:25:19.060Z,167.60
2022-10-31T04:26:19.248Z,95.60
2022-10-31T04:27:19.262Z,122.80
2022-10-31T04:29:19.201Z,170.80
2022-10-31T04:30:18.953Z,120.00
2022-10-31T04:31:19.022Z,172.00
2022-10-31T04:32:19.733Z,163.10
2022-10-31T04:33:18.885Z,162.40
2022-10-31T04:34:18.939Z,192.80
2022-10-31T04:35:18.845Z,156.00
2022-10-31T04:36:18.840Z,255.50
2022-10-31T04:37:18.848Z,141.70
2022-10-31T04:38:19.028Z,178.40
2022-10-31T04:39:24.172Z,202.10
2022-10-31T04:40:19.777Z,241.40
2022-10-31T04:41:18.869Z,170.80
2022-10-31T04:42:18.978Z,209.70
2022-10-31T04:44:18.778Z,208.60
2022-10-31T04:45:21.215Z,277.00
2022-10-31T04:46:18.811Z,254.80
2022-10-31T04:47:19.030Z,211.20
2022-10-31T04:48:18.722Z,511.00
2022-10-31T04:49:18.735Z,310.60
2022-10-31T04:50:18.663Z,393.20
2022-10-31T05:26:22.357Z,241.90
2022-10-31T05:27:10.095Z,215.20
2022-10-31T05:28:10.277Z,222.80
2022-10-31T05:29:10.309Z,247.10
2022-10-31T05:30:10.203Z,218.70
2022-10-31T05:31:10.117Z,210.30
2022-10-31T05:32:13.394Z,236.30
2022-10-31T05:33:11.117Z,271.50
2022-10-31T05:34:10.229Z,317.80
2022-10-31T05:35:10.417Z,244.20
2022-10-31T05:36:10.154Z,215.80
2022-10-31T05:37:10.063Z,243.40
2022-10-31T05:38:10.255Z,252.30
2022-10-31T05:39:10.153Z,288.30
2022-10-31T05:40:10.380Z,315.20
2022-10-31T05:41:10.281Z,307.50
2022-10-31T05:42:10.666Z,336.40
2022-10-31T05:43:10.012Z,371.70
2022-10-31T05:44:10.078Z,307.70
2022-10-31T05:45:10.112Z,308.90
2022-10-31T05:46:10.410Z,303.60
2022-10-31T05:47:10.421Z,359.30
2022-10-31T05:48:10.437Z,287.40
2022-10-31T05:49:10.300Z,330.50
2022-10-31T05:50:10.480Z,465.80
2022-10-31T05:51:10.460Z,401.50
2022-10-31T05:52:10.401Z,465.70
2022-10-31T05:53:10.670Z,380.80
2022-10-31T05:54:15.706Z,377.20
2022-10-31T05:55:11.709Z,420.30
2022-10-31T05:56:10.086Z,428.80
2022-10-31T05:57:11.900Z,452.30
2022-10-31T05:58:10.606Z,440.00
2022-10-31T05:59:10.220Z,375.60
2022-10-31T06:00:11.440Z,498.30
2022-10-31T06:01:10.969Z,618.20
2022-10-31T06:02:10.212Z,578.60
2022-10-31T06:03:10.492Z,410.30
2022-10-31T06:04:10.272Z,534.10
2022-10-31T06:05:10.506Z,405.90
2022-10-31T06:06:10.433Z,436.70
2022-10-31T06:07:10.328Z,327.20
2022-10-31T06:08:10.850Z,383.90
2022-10-31T06:09:09.886Z,483.40
2022-10-31T06:10:09.781Z,422.30
2022-10-31T06:11:09.852Z,381.80
2022-10-31T06:12:10.587Z,409.90
2022-10-31T06:13:09.768Z,397.00
2022-10-31T06:14:10.599Z,390.80
2022-10-31T06:15:10.511Z,354.90
2022-10-31T06:16:10.310Z,303.50
2022-10-31T06:17:09.888Z,266.90
2022-10-31T06:18:09.717Z,345.90
2022-10-31T06:19:09.602Z,352.50
2022-10-31T06:20:09.823Z,296.00
2022-10-31T06:21:13.660Z,276.50
2022-10-31T06:22:10.747Z,238.30
2022-10-31T06:23:09.561Z,216.50
2022-10-31T06:24:09.659Z,295.10
2022-10-31T06:25:09.985Z,268.20
2022-10-31T06:26:10.395Z,367.20
2022-10-31T06:27:09.484Z,339.60
2022-10-31T06:28:09.676Z,318.60
2022-10-31T06:29:09.605Z,335.90
2022-10-31T06:30:10.432Z,314.70
2022-10-31T06:31:09.407Z,411.90
2022-10-31T06:32:09.904Z,307.70
2022-10-31T06:33:09.400Z,260.60
2022-10-31T06:34:09.826Z,299.40
2022-10-31T06:35:09.622Z,240.00
2022-10-31T06:36:09.970Z,328.30
2022-10-31T06:37:09.458Z,300.30
2022-10-31T06:38:09.471Z,260.10
2022-10-31T06:39:09.296Z,218.00
2022-10-31T06:40:09.493Z,294.10
2022-10-31T06:41:09.360Z,318.50
2022-10-31T06:42:09.078Z,314.00
2022-10-31T06:43:09.254Z,333.40
2022-10-31T06:44:10.105Z,322.00
2022-10-31T06:45:09.620Z,318.80
2022-10-31T06:46:09.391Z,332.70
2022-10-31T06:47:09.217Z,271.80
2022-10-31T06:48:17.018Z,323.90
2022-10-31T06:49:10.182Z,293.40
2022-10-31T06:50:09.125Z,294.70
2022-10-31T06:51:09.220Z,301.80
2022-10-31T06:52:09.062Z,299.50
2022-10-31T06:54:09.581Z,274.70
2022-10-31T06:55:09.175Z,278.80
2022-10-31T06:56:09.271Z,321.70
2022-10-31T06:57:09.069Z,320.50
2022-10-31T06:58:09.880Z,306.60
2022-10-31T06:59:10.297Z,287.90
2022-10-31T07:00:09.423Z,356.80
2022-10-31T07:01:09.988Z,390.90
2022-10-31T07:02:09.265Z,352.20
2022-10-31T07:03:09.547Z,379.60
2022-10-31T07:04:10.011Z,395.90
2022-10-31T07:05:09.763Z,404.60
2022-10-31T07:06:09.769Z,325.00
2022-10-31T07:07:10.674Z,381.90
2022-10-31T07:08:08.850Z,401.40
2022-10-31T07:09:17.551Z,277.70
2022-10-31T07:10:08.919Z,430.40
2022-10-31T07:11:08.735Z,380.20
2022-10-31T07:12:09.071Z,294.90
2022-10-31T07:13:09.398Z,344.00
2022-10-31T07:14:09.187Z,374.60
2022-10-31T07:15:09.180Z,380.40
2022-10-31T07:16:08.814Z,444.40
2022-10-31T07:17:08.928Z,338.20
2022-10-31T07:18:09.246Z,377.00
2022-10-31T07:19:08.786Z,340.30
2022-10-31T07:20:09.022Z,341.60
2022-10-31T07:21:08.742Z,315.40
2022-10-31T07:22:08.729Z,354.20
2022-10-31T07:23:09.279Z,319.10
2022-10-31T07:24:09.068Z,454.80
2022-10-31T07:25:08.781Z,256.80
2022-10-31T07:26:08.844Z,376.00
2022-10-31T07:27:08.956Z,244.10
2022-10-31T07:28:08.784Z,229.30
2022-10-31T07:29:10.626Z,276.50
2022-10-31T07:30:12.030Z,363.80
2022-10-31T07:31:11.581Z,303.90
2022-10-31T07:32:08.478Z,297.00
2022-10-31T07:33:11.492Z,201.70
2022-10-31T07:34:08.836Z,274.60
2022-10-31T07:35:08.432Z,269.50
2022-10-31T07:36:08.356Z,288.20
2022-10-31T07:37:09.269Z,310.60
2022-10-31T07:38:08.930Z,230.30
2022-10-31T07:39:08.744Z,268.90
2022-10-31T07:40:09.645Z,215.00
2022-10-31T07:41:08.792Z,211.00
2022-10-31T07:42:08.246Z,272.70
2022-10-31T07:43:11.529Z,165.80
2022-10-31T07:44:09.915Z,232.30
2022-10-31T07:45:08.471Z,200.20
2022-10-31T07:46:09.339Z,200.30
2022-10-31T07:47:08.402Z,274.70
2022-10-31T07:48:08.222Z,231.90
2022-10-31T07:49:08.431Z,192.40
2022-10-31T07:50:08.634Z,188.00
2022-10-31T07:51:08.250Z,181.00
2022-10-31T07:52:08.847Z,189.80
2022-10-31T07:53:08.458Z,272.50
2022-10-31T07:54:08.554Z,185.00
2022-10-31T07:55:09.258Z,144.90
2022-10-31T07:56:08.559Z,277.20
2022-10-31T07:57:08.399Z,294.30
2022-10-31T07:58:09.610Z,179.30
2022-10-31T07:59:08.323Z,213.70
2022-10-31T08:00:08.399Z,195.60
2022-10-31T08:01:10.498Z,222.30
2022-10-31T08:02:08.424Z,386.00
2022-10-31T08:03:08.410Z,267.50
2022-10-31T08:04:08.456Z,172.60
2022-10-31T08:05:08.538Z,345.60
2022-10-31T08:06:08.556Z,168.70
2022-10-31T08:07:08.124Z,266.00
2022-10-31T08:08:08.505Z,219.00
2022-10-31T08:09:08.681Z,286.00
2022-10-31T08:10:07.971Z,249.30
2022-10-31T08:11:08.261Z,150.50
2022-10-31T08:12:08.304Z,202.50
2022-10-31T08:13:08.098Z,279.20
2022-10-31T08:14:07.892Z,239.30
2022-10-31T08:15:07.997Z,269.50
2022-10-31T08:16:08.434Z,287.70
2022-10-31T08:17:08.090Z,244.70
2022-10-31T08:18:08.193Z,282.30
2022-10-31T08:19:08.325Z,302.10
2022-10-31T08:20:08.031Z,228.60
2022-10-31T08:21:08.334Z,247.00
2022-10-31T08:22:08.020Z,253.60
2022-10-31T08:23:07.753Z,174.60
2022-10-31T08:24:08.551Z,229.10
2022-10-31T08:25:08.069Z,235.20
2022-10-31T08:26:07.767Z,245.40
2022-10-31T08:27:08.690Z,167.40
2022-10-31T08:28:08.142Z,165.90
2022-10-31T08:29:08.208Z,203.20
2022-10-31T08:30:07.705Z,221.70
2022-10-31T08:31:08.019Z,107.30
2022-10-31T08:32:07.705Z,188.50
2022-10-31T08:33:07.842Z,192.20
2022-10-31T08:34:07.735Z,141.10
2022-10-31T08:35:07.942Z,162.30
2022-10-31T08:36:08.437Z,162.80
2022-10-31T08:37:09.287Z,132.40
2022-10-31T08:38:08.056Z,144.70
2022-10-31T08:39:07.747Z,172.80
2022-10-31T08:40:07.670Z,133.30
2022-10-31T08:41:09.115Z,149.90
2022-10-31T08:42:09.030Z,96.30
2022-10-31T08:43:08.408Z,123.20
2022-10-31T08:44:08.401Z,87.10
2022-10-31T08:45:07.709Z,106.80
2022-10-31T08:46:08.737Z,139.40
2022-10-31T08:47:07.508Z,136.70
2022-10-31T08:48:07.595Z,109.00
2022-10-31T09:01:44.306Z,187.80
2022-10-31T09:02:28.796Z,185.90
2022-10-31T09:03:28.497Z,138.50
2022-10-31T09:04:28.185Z,177.80
2022-10-31T09:05:27.501Z,114.30
2022-10-31T09:06:27.767Z,83.70
2022-10-31T09:07:27.505Z,87.60
2022-10-31T09:08:27.942Z,135.00
2022-10-31T09:09:28.022Z,116.00
2022-10-31T09:10:27.319Z,114.90
2022-10-31T09:11:27.043Z,68.10
2022-10-31T09:12:28.062Z,67.00
2022-10-31T09:13:28.778Z,94.80
2022-10-31T09:14:27.021Z,80.10
2022-10-31T09:15:28.808Z,120.00
2022-10-31T09:16:26.953Z,93.30
2022-10-31T09:17:26.847Z,101.20
2022-10-31T09:18:27.785Z,119.70
2022-10-31T09:19:27.183Z,120.80
2022-10-31T09:20:26.680Z,121.50
2022-10-31T09:21:27.727Z,81.90
2022-10-31T09:22:26.790Z,75.60
2022-10-31T09:23:26.670Z,114.40
2022-10-31T09:24:26.710Z,97.70
2022-10-31T09:25:26.715Z,71.90
2022-10-31T09:26:26.827Z,92.60
2022-10-31T09:27:26.630Z,52.30
2022-10-31T09:28:26.725Z,97.90
2022-10-31T09:29:27.039Z,116.50
2022-10-31T09:30:26.565Z,111.00
2022-10-31T09:31:26.651Z,108.30
2022-10-31T09:32:26.468Z,87.00
2022-10-31T09:33:26.470Z,105.00
2022-10-31T09:34:26.692Z,94.80
2022-10-31T09:35:26.994Z,77.70
2022-10-31T09:36:26.592Z,101.90
2022-10-31T09:37:26.509Z,83.40
2022-10-31T09:38:26.415Z,87.30
2022-10-31T09:39:26.420Z,72.10
2022-10-31T09:40:26.424Z,114.60
2022-10-31T09:41:26.397Z,86.40
2022-10-31T09:42:26.442Z,48.10
2022-10-31T09:43:26.563Z,49.40
2022-10-31T09:44:26.332Z,53.20
2022-10-31T09:45:26.337Z,68.20
2022-10-31T09:46:26.330Z,87.00
2022-10-31T09:47:26.349Z,91.70
2022-10-31T09:48:27.494Z,96.20
2022-10-31T09:49:26.564Z,95.10
2022-10-31T09:50:26.183Z,100.80
2022-10-31T09:51:26.270Z,96.70
2022-10-31T09:52:29.071Z,81.40
2022-10-31T09:53:26.287Z,108.70
2022-10-31T09:54:26.182Z,114.20
2022-10-31T09:55:26.216Z,59.10
2022-10-31T09:56:28.588Z,65.80
2022-10-31T09:57:26.137Z,49.10
2022-10-31T09:58:26.317Z,47.00
2022-10-31T09:59:26.357Z,50.10
2022-10-31T10:00:26.325Z,66.30
2022-10-31T10:01:26.184Z,68.50
2022-10-31T10:02:26.138Z,59.00
2022-10-31T10:03:26.987Z,67.50
2022-10-31T10:04:26.164Z,56.90
2022-10-31T10:05:26.076Z,45.90
2022-10-31T10:06:26.220Z,62.50
2022-10-31T10:07:25.986Z,45.40
2022-10-31T10:08:26.005Z,54.50
2022-10-31T10:09:26.003Z,40.20
2022-10-31T10:10:27.102Z,48.50
2022-10-31T10:11:26.027Z,41.00
2022-10-31T10:12:26.036Z,50.50
2022-10-31T10:13:26.041Z,50.10
2022-10-31T10:14:25.925Z,46.80
2022-10-31T10:15:25.927Z,48.10
2022-10-31T10:16:25.859Z,66.80
2022-10-31T10:17:25.956Z,54.60
2022-10-31T10:18:25.842Z,69.90
2022-10-31T10:19:25.840Z,62.80
2022-10-31T10:20:25.922Z,53.70
2022-10-31T10:21:25.889Z,67.90
2022-10-31T10:22:25.983Z,48.20
2022-10-31T10:23:25.812Z,53.60
2022-10-31T10:24:25.801Z,67.80
2022-10-31T10:25:25.790Z,41.30
2022-10-31T10:26:25.802Z,40.10
2022-10-31T10:27:25.826Z,72.20
2022-10-31T10:28:25.644Z,70.90
2022-10-31T10:29:25.726Z,59.30
2022-10-31T10:30:25.731Z,69.20
2022-10-31T10:31:25.745Z,53.20
2022-10-31T10:32:25.858Z,60.40
2022-10-31T10:33:25.756Z,51.00
2022-10-31T10:34:25.666Z,48.00
2022-10-31T10:35:25.752Z,64.50
2022-10-31T10:36:25.671Z,65.30
2022-10-31T10:37:25.583Z,70.70
2022-10-31T10:38:25.703Z,49.60
2022-10-31T10:39:25.717Z,42.60
2022-10-31T10:40:25.603Z,35.80
2022-10-31T10:41:28.281Z,42.40
2022-10-31T10:42:26.539Z,46.70
2022-10-31T10:43:25.631Z,39.90
2022-10-31T10:44:25.547Z,49.80
2022-10-31T10:45:25.448Z,55.50
2022-10-31T10:46:25.569Z,49.20
2022-10-31T10:47:25.653Z,50.50
2022-10-31T10:48:25.435Z,51.20
2022-10-31T10:49:26.900Z,55.50
2022-10-31T10:50:25.374Z,42.30
2022-10-31T10:51:38.969Z,44.30
2022-10-31T10:52:41.764Z,47.50
2022-10-31T10:53:26.398Z,44.70
2022-10-31T10:54:25.795Z,37.60
2022-10-31T10:55:25.678Z,53.70
2022-10-31T10:56:25.298Z,45.60
2022-10-31T10:57:25.418Z,34.50
2022-10-31T10:58:25.495Z,31.60
2022-10-31T10:59:25.410Z,36.00
2022-10-31T11:00:25.350Z,34.10
2022-10-31T11:01:25.339Z,43.00
2022-10-31T11:02:25.340Z,52.00
2022-10-31T11:03:25.345Z,30.40
2022-10-31T11:04:25.780Z,29.90
2022-10-31T11:05:25.475Z,34.60
2022-10-31T11:06:25.359Z,29.80
2022-10-31T11:07:25.252Z,27.50
2022-10-31T11:08:27.710Z,26.50
2022-10-31T11:09:25.123Z,28.40
2022-10-31T11:10:25.080Z,28.80
2022-10-31T11:11:25.123Z,34.80
2022-10-31T11:12:25.014Z,41.40
2022-10-31T11:13:25.135Z,38.80
2022-10-31T11:14:26.270Z,41.20
2022-10-31T11:15:25.356Z,41.20
2022-10-31T11:16:25.649Z,34.80
2022-10-31T11:17:26.037Z,29.70
2022-10-31T11:19:25.370Z,22.00
2022-10-31T11:20:25.882Z,28.10
2022-10-31T11:21:24.973Z,26.60
2022-10-31T11:22:25.095Z,33.50
2022-10-31T11:23:25.183Z,30.90
2022-10-31T11:24:24.895Z,28.50
2022-10-31T11:25:25.017Z,26.30
2022-10-31T11:26:24.904Z,22.70
2022-10-31T11:27:25.204Z,24.10
2022-10-31T11:28:24.821Z,24.50
2022-10-31T11:29:24.983Z,28.00
2022-10-31T11:30:25.756Z,31.40
2022-10-31T11:31:24.838Z,28.30
2022-10-31T11:32:25.161Z,30.10
2022-10-31T11:33:25.580Z,26.80
2022-10-31T11:34:24.949Z,27.10
2022-10-31T11:35:24.912Z,31.60
2022-10-31T11:36:24.750Z,26.80
2022-10-31T11:37:25.584Z,28.10
2022-10-31T11:38:25.081Z,24.50
2022-10-31T11:39:24.801Z,25.50
2022-10-31T11:40:24.870Z,26.70
2022-10-31T11:41:24.782Z,28.20
2022-10-31T11:42:25.118Z,30.50
2022-10-31T11:43:25.018Z,33.60
2022-10-31T11:44:24.723Z,26.90
2022-10-31T11:45:25.153Z,28.40
2022-10-31T11:46:25.152Z,24.40
2022-10-31T11:47:24.824Z,22.70
2022-10-31T11:48:24.640Z,22.30
2022-10-31T11:49:24.758Z,22.90
2022-10-31T11:50:24.758Z,23.50
2022-10-31T11:51:24.695Z,24.40
2022-10-31T11:52:24.698Z,27.50
2022-10-31T11:53:24.674Z,22.20
2022-10-31T11:54:24.787Z,25.50
2022-10-31T11:55:24.669Z,21.70
2022-10-31T11:56:24.614Z,24.20
2022-10-31T11:57:25.516Z,26.80
2022-10-31T11:58:24.821Z,27.90
2022-10-31T11:59:24.630Z,26.60
2022-10-31T12:00:24.521Z,26.50
2022-10-31T12:01:24.464Z,24.00
2022-10-31T12:02:24.547Z,24.30
2022-10-31T12:03:24.431Z,20.60
2022-10-31T12:04:24.549Z,24.50
2022-10-31T12:05:24.477Z,22.30
2022-10-31T12:06:24.446Z,20.60
2022-10-31T12:07:24.375Z,22.00
2022-10-31T12:08:24.464Z,21.70
2022-10-31T12:09:24.189Z,22.80
2022-10-31T12:10:24.287Z,20.00
2022-10-31T12:11:25.229Z,23.30
2022-10-31T12:12:24.402Z,19.20
2022-10-31T12:13:24.746Z,21.30
2022-10-31T12:14:24.618Z,18.40
2022-10-31T12:15:24.340Z,20.30
2022-10-31T12:16:24.555Z,21.70
2022-10-31T12:17:24.361Z,18.30
2022-10-31T12:18:26.313Z,17.60
2022-10-31T12:19:24.463Z,22.30
2022-10-31T12:20:24.767Z,21.80
2022-10-31T12:21:24.283Z,18.70
2022-10-31T12:22:24.210Z,20.90
2022-10-31T12:23:24.278Z,18.10
2022-10-31T12:24:24.096Z,22.30
2022-10-31T12:25:24.728Z,17.40
2022-10-31T12:26:24.315Z,19.90
2022-10-31T12:27:24.207Z,20.60
2022-10-31T12:28:25.113Z,22.70
2022-10-31T12:29:24.312Z,19.10
2022-10-31T12:30:24.010Z,20.90
2022-10-31T12:31:24.051Z,22.20
2022-10-31T12:32:24.053Z,20.60
2022-10-31T12:33:23.962Z,19.30
2022-10-31T12:34:26.124Z,18.80
2022-10-31T12:35:23.963Z,19.10
2022-10-31T12:36:24.088Z,20.10
2022-10-31T12:37:23.857Z,19.40
2022-10-31T12:38:23.976Z,20.00
2022-10-31T12:39:24.095Z,15.90
2022-10-31T12:40:23.987Z,16.70
2022-10-31T12:41:24.104Z,18.60
2022-10-31T12:42:24.018Z,15.80
2022-10-31T12:43:24.031Z,16.70
2022-10-31T12:44:23.931Z,18.40
2022-10-31T12:45:24.037Z,20.00
2022-10-31T12:46:23.919Z,17.70
2022-10-31T12:47:23.760Z,22.60
2022-10-31T12:48:23.953Z,35.80
2022-10-31T12:49:24.878Z,17.00
2022-10-31T12:50:23.937Z,22.40
2022-10-31T12:51:23.861Z,17.40
2022-10-31T12:52:23.660Z,20.70
2022-10-31T12:53:23.779Z,19.20
2022-10-31T12:54:23.790Z,19.00
2022-10-31T12:55:23.685Z,16.50
2022-10-31T12:56:23.805Z,16.00
2022-10-31T12:57:23.627Z,17.00
2022-10-31T12:58:24.562Z,15.40
2022-10-31T12:59:23.758Z,18.80
2022-10-31T13:00:26.585Z,16.70
2022-10-31T13:01:24.811Z,17.10
2022-10-31T13:02:23.916Z,16.90
2022-10-31T13:03:23.665Z,15.80
2022-10-31T13:04:23.833Z,16.70
2022-10-31T13:05:23.665Z,15.10
2022-10-31T13:06:23.572Z,17.40
2022-10-31T13:07:23.487Z,16.50
2022-10-31T13:08:23.885Z,19.40
2022-10-31T13:09:24.318Z,14.60
2022-10-31T13:10:23.710Z,19.00
2022-10-31T13:11:23.614Z,17.80
2022-10-31T13:12:24.011Z,17.90
2022-10-31T13:13:23.702Z,18.90
2022-10-31T13:14:23.581Z,20.20
2022-10-31T13:15:23.510Z,17.00
2022-10-31T13:16:23.452Z,17.50
2022-10-31T13:17:23.470Z,17.90
2022-10-31T13:18:23.639Z,17.30
2022-10-31T13:19:23.566Z,18.20
2022-10-31T13:20:23.482Z,18.60
2022-10-31T13:21:24.200Z,18.20
2022-10-31T13:22:23.350Z,18.40
2022-10-31T13:23:52.541Z,19.50
2022-10-31T13:24:24.200Z,19.60
2022-10-31T13:25:23.680Z,21.00
2022-10-31T13:26:23.293Z,16.30
2022-10-31T13:27:23.317Z,19.60
2022-10-31T13:28:23.516Z,16.30
2022-10-31T13:29:26.867Z,19.30
2022-10-31T13:30:24.353Z,17.80
2022-10-31T13:31:23.249Z,16.10
2022-10-31T13:32:24.151Z,17.20
2022-10-31T13:33:24.375Z,16.60
2022-10-31T13:34:23.961Z,16.40
2022-10-31T13:35:24.600Z,16.80
2022-10-31T13:36:23.286Z,20.70
2022-10-31T13:37:23.166Z,20.60
2022-10-31T13:38:23.054Z,19.90
2022-10-31T13:39:23.139Z,19.20
2022-10-31T13:40:23.003Z,20.80
2022-10-31T13:41:22.988Z,22.80
2022-10-31T13:42:23.142Z,21.40
2022-10-31T13:43:24.029Z,21.50